Shintaiei Maru — JD3904 — position and weather

sailwx.info

Track history (hours):
 
Tides and Currents Weather Stations Pressure Air Temp Water Temp Dewpoint Dewpoint Depression Visibility Wind Speed Wind Dir Waves Ship Positions

Shintaiei Maru

Last reported at 2017-Nov-16 11:14 UTC. Time now 2017-Nov-23 09:27 UTC.
Position N 34°52' E 139°53'.

Length 75 m; draft 4.5 m.

Type: Cargo ship. MMSI: 431006906.

Date/timePositionNaut miles runAvg speedWind from/ knotsBaromVisibWave heightAir tempDewpointWater temp
2017-Nov-16 11:14N 34°52' E 139°53'6 9.1
2017-Nov-16 10:35N 34°54' E 139°46'110.4
2017-Nov-16 10:30N 34°55' E 139°46'510.3
2017-Nov-16 10:00N 34°60' E 139°43'510.6
2017-Nov-16 09:30N 35°05' E 139°44'510.6
2017-Nov-16 09:00N 35°10' E 139°46'611.4
2017-Nov-16 08:30N 35°16' E 139°46'611.4
2017-Nov-16 08:01N 35°21' E 139°42'510.6
2017-Nov-16 07:30N 35°26' E 139°45'611.6
2017-Nov-16 07:00N 35°29' E 139°50'5 0.1
2017-Nov-14 19:24N 35°32' E 139°55'411.3
2017-Nov-14 19:00N 35°29' E 139°52'510.8
2017-Nov-14 18:30N 35°24' E 139°49'  
2017-Nov-12 03:02N 34°52' E 139°48'312.1
2017-Nov-12 02:49N 34°54' E 139°46'411.2
2017-Nov-12 02:26N 34°58' E 139°43'512.3
2017-Nov-12 02:00N 35°03' E 139°44'612.3
2017-Nov-12 01:30N 35°09' E 139°45'612.1
2017-Nov-12 01:01N 35°15' E 139°46'611.8
2017-Nov-12 00:30N 35°20' E 139°42'611.0
2017-Nov-12 00:00N 35°25' E 139°45'510.8
2017-Nov-11 23:31N 35°23' E 139°51'2 0.2
2017-Nov-11 12:03N 35°22' E 139°53'0 1.2
2017-Nov-11 11:58N 35°22' E 139°52'3 6.8
2017-Nov-11 11:28N 35°24' E 139°49'0 0.2
2017-Nov-11 10:56N 35°24' E 139°49'0 0.0
2017-Nov-11 10:26N 35°24' E 139°49'0 0.0
2017-Nov-11 09:56N 35°24' E 139°49'0 0.0
2017-Nov-11 09:26N 35°24' E 139°49'0 0.0
2017-Nov-11 08:56N 35°24' E 139°49'0 0.0
2017-Nov-11 08:20N 35°24' E 139°49'0 0.0
2017-Nov-11 07:56N 35°24' E 139°49'0 0.0
2017-Nov-11 07:08N 35°24' E 139°49'0 0.0
2017-Nov-11 06:53N 35°24' E 139°49'0 0.0
2017-Nov-11 06:29N 35°24' E 139°49'0 0.0
2017-Nov-11 06:00N 35°24' E 139°49'0 0.0
2017-Nov-11 05:29N 35°24' E 139°49'0 0.0
2017-Nov-11 04:53N 35°24' E 139°49'0 0.0
2017-Nov-11 04:29N 35°24' E 139°49'0 0.0
2017-Nov-11 03:56N 35°24' E 139°49'0 0.0
2017-Nov-11 03:29N 35°24' E 139°49'0 0.3
2017-Nov-11 02:59N 35°24' E 139°49'4 7.9
2017-Nov-11 02:30N 35°22' E 139°45'5 9.5
2017-Nov-11 02:00N 35°17' E 139°45'510.4
2017-Nov-11 01:30N 35°12' E 139°47'511.0
2017-Nov-11 01:00N 35°07' E 139°44'611.7
2017-Nov-11 00:30N 35°03' E 139°38'  
Track history (hours):
 
Tides and Currents Weather Stations Pressure Air Temp Water Temp Dewpoint Dewpoint Depression Visibility Wind Speed Wind Dir Waves Ship Positions

Shintaiei Maru

Last reported at 2017-Nov-16 11:14 UTC. Time now 2017-Nov-23 09:27 UTC.
Position N 34°52' E 139°53'.

Length 75 m; draft 4.5 m.

Type: Cargo ship. MMSI: 431006906.

Date/timePositionNaut miles runAvg speedWind from/ knotsBaromVisibWave heightAir tempDewpointWater temp
2017-Nov-16 11:14N 34°52' E 139°53'6 9.1
2017-Nov-16 10:35N 34°54' E 139°46'110.4
2017-Nov-16 10:30N 34°55' E 139°46'510.3
2017-Nov-16 10:00N 34°60' E 139°43'510.6
2017-Nov-16 09:30N 35°05' E 139°44'510.6
2017-Nov-16 09:00N 35°10' E 139°46'611.4
2017-Nov-16 08:30N 35°16' E 139°46'611.4
2017-Nov-16 08:01N 35°21' E 139°42'510.6
2017-Nov-16 07:30N 35°26' E 139°45'611.6
2017-Nov-16 07:00N 35°29' E 139°50'5 0.1
2017-Nov-14 19:24N 35°32' E 139°55'411.3
2017-Nov-14 19:00N 35°29' E 139°52'510.8
2017-Nov-14 18:30N 35°24' E 139°49'  
2017-Nov-12 03:02N 34°52' E 139°48'312.1
2017-Nov-12 02:49N 34°54' E 139°46'411.2
2017-Nov-12 02:26N 34°58' E 139°43'512.3
2017-Nov-12 02:00N 35°03' E 139°44'612.3
2017-Nov-12 01:30N 35°09' E 139°45'612.1
2017-Nov-12 01:01N 35°15' E 139°46'611.8
2017-Nov-12 00:30N 35°20' E 139°42'611.0
2017-Nov-12 00:00N 35°25' E 139°45'510.8
2017-Nov-11 23:31N 35°23' E 139°51'2 0.2
2017-Nov-11 12:03N 35°22' E 139°53'0 1.2
2017-Nov-11 11:58N 35°22' E 139°52'3 6.8
2017-Nov-11 11:28N 35°24' E 139°49'0 0.2
2017-Nov-11 10:56N 35°24' E 139°49'0 0.0
2017-Nov-11 10:26N 35°24' E 139°49'0 0.0
2017-Nov-11 09:56N 35°24' E 139°49'0 0.0
2017-Nov-11 09:26N 35°24' E 139°49'0 0.0
2017-Nov-11 08:56N 35°24' E 139°49'0 0.0
2017-Nov-11 08:20N 35°24' E 139°49'0 0.0
2017-Nov-11 07:56N 35°24' E 139°49'0 0.0
2017-Nov-11 07:08N 35°24' E 139°49'0 0.0
2017-Nov-11 06:53N 35°24' E 139°49'0 0.0
2017-Nov-11 06:29N 35°24' E 139°49'0 0.0
2017-Nov-11 06:00N 35°24' E 139°49'0 0.0
2017-Nov-11 05:29N 35°24' E 139°49'0 0.0
2017-Nov-11 04:53N 35°24' E 139°49'0 0.0
2017-Nov-11 04:29N 35°24' E 139°49'0 0.0
2017-Nov-11 03:56N 35°24' E 139°49'0 0.0
2017-Nov-11 03:29N 35°24' E 139°49'0 0.3
2017-Nov-11 02:59N 35°24' E 139°49'4 7.9
2017-Nov-11 02:30N 35°22' E 139°45'5 9.5
2017-Nov-11 02:00N 35°17' E 139°45'510.4
2017-Nov-11 01:30N 35°12' E 139°47'511.0
2017-Nov-11 01:00N 35°07' E 139°44'611.7
2017-Nov-11 00:30N 35°03' E 139°38'  

Dump ship's entire track history